Terminal Aerodrome Forecast
Issued by NWS

Home | Current Version | Previous Version | Graphics & Text | Print | Product List | Glossary On
Versions: 1 2 3 4 5 6 7 8 9 10 11 12 13 14 15 16 17 18 19
000
FTUS42 KMHX 242341
TAFPGV
TAF
KPGV 242341Z 2500/2524 01008KT 5SM -FZRASNPL BR BKN006 OVC015
     FM250200 35005KT 4SM BR BKN005
     FM250500 31004KT P6SM SCT010
     FM251200 33004KT P6SM BKN200
      AMD LTD TO CLD VIS AND WIND=

USA.gov is the U.S. government's official web portal to all federal, state and local government web resources and services.